createdAt,value
2022-09-28T00:00:46.467Z,46.48
2022-09-28T00:03:13.693Z,46.40
2022-09-28T00:05:40.227Z,46.33
2022-09-28T00:08:06.872Z,46.19
2022-09-28T00:10:33.368Z,46.38
2022-09-28T00:13:01.388Z,46.44
2022-09-28T00:15:27.916Z,46.20
2022-09-28T00:17:54.521Z,46.31
2022-09-28T00:22:43.929Z,46.27
2022-09-28T00:25:10.632Z,46.23
2022-09-28T00:27:37.149Z,46.22
2022-09-28T00:30:04.358Z,46.16
2022-09-28T00:32:31.158Z,46.11
2022-09-28T00:35:01.655Z,46.05
2022-09-28T00:37:28.981Z,46.23
2022-09-28T00:39:56.180Z,46.02
2022-09-28T00:42:24.904Z,46.11
2022-09-28T00:45:00.744Z,45.99
2022-09-28T00:49:50.065Z,45.96
2022-09-28T00:52:29.166Z,45.93
2022-09-28T00:55:02.155Z,46.01
2022-09-28T00:57:30.935Z,46.10
2022-09-28T01:00:04.389Z,46.09
2022-09-28T01:02:32.024Z,45.99
2022-09-28T01:05:01.142Z,45.88
2022-09-28T01:07:28.748Z,45.83
2022-09-28T01:09:56.438Z,45.89
2022-09-28T01:12:23.096Z,45.90
2022-09-28T01:14:50.902Z,45.86
2022-09-28T01:17:30.604Z,45.75
2022-09-28T01:20:23.290Z,45.94
2022-09-28T01:23:23.776Z,45.93
2022-09-28T01:25:58.217Z,46.06
2022-09-28T01:30:47.104Z,45.96
2022-09-28T01:33:22.544Z,45.96
2022-09-28T01:35:57.605Z,46.13
2022-09-28T01:38:34.437Z,46.07
2022-09-28T01:41:01.803Z,45.86
2022-09-28T01:43:30.757Z,46.04
2022-09-28T01:46:02.410Z,45.77
2022-09-28T01:48:50.785Z,45.97
2022-09-28T01:51:59.693Z,45.93
2022-09-28T01:54:37.355Z,45.86
2022-09-28T01:57:26.828Z,46.13
2022-09-28T02:00:10.708Z,46.02
2022-09-28T02:03:16.882Z,45.83
2022-09-28T02:05:58.664Z,45.56
2022-09-28T02:08:29.557Z,45.61
2022-09-28T02:11:14.271Z,45.59
2022-09-28T02:13:44.869Z,45.69
2022-09-28T02:16:23.410Z,45.59
2022-09-28T02:18:51.030Z,45.55
2022-09-28T02:21:30.716Z,45.47
2022-09-28T02:24:02.112Z,45.50
2022-09-28T02:26:38.897Z,45.48
2022-09-28T02:29:05.953Z,45.31
2022-09-28T02:31:32.717Z,45.27
2022-09-28T02:33:59.666Z,45.31
2022-09-28T02:36:28.650Z,45.15
2022-09-28T02:38:57.686Z,45.06
2022-09-28T02:41:43.057Z,45.13
2022-09-28T02:44:28.400Z,45.03
2022-09-28T02:47:09.864Z,45.00
2022-09-28T02:50:04.684Z,44.99
2022-09-28T02:52:47.767Z,45.05
2022-09-28T02:55:24.564Z,45.32
2022-09-28T02:58:03.652Z,45.26
2022-09-28T03:00:35.587Z,45.24
2022-09-28T03:03:07.777Z,45.13
2022-09-28T03:05:58.345Z,45.06
2022-09-28T03:08:32.308Z,44.87
2022-09-28T03:11:07.942Z,44.98
2022-09-28T03:13:35.669Z,44.89
2022-09-28T03:16:14.011Z,44.84
2022-09-28T03:18:42.358Z,44.68
2022-09-28T03:21:11.323Z,44.68
2022-09-28T03:23:39.375Z,44.53
2022-09-28T03:26:08.773Z,44.57
2022-09-28T03:28:36.220Z,44.56
2022-09-28T03:31:03.630Z,44.37
2022-09-28T03:33:30.347Z,44.41
2022-09-28T03:35:56.865Z,44.50
2022-09-28T03:38:23.985Z,44.35
2022-09-28T03:40:55.719Z,44.36
2022-09-28T03:43:23.400Z,44.40
2022-09-28T03:45:56.491Z,44.25
2022-09-28T03:48:28.807Z,44.23
2022-09-28T03:51:09.144Z,44.08
2022-09-28T03:53:37.012Z,44.27
2022-09-28T03:56:11.964Z,44.02
2022-09-28T03:58:39.281Z,44.03
2022-09-28T04:01:12.948Z,44.11
2022-09-28T04:03:43.041Z,43.96
2022-09-28T04:06:09.748Z,43.98
2022-09-28T04:08:36.356Z,43.79
2022-09-28T04:11:03.021Z,43.94
2022-09-28T04:13:30.454Z,43.73
2022-09-28T04:16:00.596Z,43.93
2022-09-28T04:18:29.867Z,43.96
2022-09-28T04:21:15.868Z,43.62
2022-09-28T04:23:50.111Z,43.69
2022-09-28T04:26:22.593Z,43.64
2022-09-28T04:29:08.588Z,43.71
2022-09-28T04:31:55.223Z,43.61
2022-09-28T04:34:36.554Z,43.57
2022-09-28T04:37:05.420Z,43.42
2022-09-28T04:39:32.072Z,43.55
2022-09-28T04:41:58.796Z,43.52
2022-09-28T04:44:27.085Z,43.52
2022-09-28T04:47:04.320Z,43.46
2022-09-28T04:49:31.777Z,43.35
2022-09-28T04:52:06.074Z,43.35
2022-09-28T04:54:34.262Z,43.32
2022-09-28T04:57:03.345Z,43.42
2022-09-28T04:59:30.017Z,43.31
2022-09-28T05:01:56.567Z,43.19
2022-09-28T05:04:41.188Z,43.22
2022-09-28T05:07:26.887Z,43.17
2022-09-28T05:09:55.226Z,43.25
2022-09-28T05:12:21.977Z,43.34
2022-09-28T05:17:11.144Z,43.24
2022-09-28T05:19:53.843Z,43.20
2022-09-28T05:22:20.512Z,43.37
2022-09-28T05:24:47.169Z,43.26
2022-09-28T05:27:14.343Z,43.46
2022-09-28T05:29:41.422Z,43.42
2022-09-28T05:32:26.786Z,43.75
2022-09-28T05:35:16.660Z,43.54
2022-09-28T05:37:46.225Z,43.64
2022-09-28T05:40:12.977Z,43.83
2022-09-28T05:42:40.774Z,43.77
2022-09-28T05:45:08.380Z,43.70
2022-09-28T05:47:44.036Z,43.80
2022-09-28T05:50:15.877Z,43.99
2022-09-28T05:52:43.756Z,43.82
2022-09-28T05:55:11.252Z,43.83
2022-09-28T05:57:37.973Z,43.99
2022-09-28T06:00:08.990Z,43.77
2022-09-28T06:03:15.278Z,44.04
2022-09-28T06:05:42.073Z,44.12
2022-09-28T06:08:10.694Z,44.08
2022-09-28T06:10:41.985Z,44.11
2022-09-28T06:13:18.920Z,44.56
2022-09-28T06:15:46.394Z,44.98
2022-09-28T06:18:14.895Z,45.10
2022-09-28T06:21:00.005Z,45.27
2022-09-28T06:23:43.639Z,45.33
2022-09-28T06:26:13.878Z,45.33
2022-09-28T06:28:40.412Z,45.33
2022-09-28T06:31:07.083Z,45.59
2022-09-28T06:33:42.075Z,45.77
2022-09-28T06:36:10.220Z,45.94
2022-09-28T06:38:38.097Z,46.17
2022-09-28T06:41:05.294Z,46.50
2022-09-28T06:43:34.555Z,46.59
2022-09-28T06:46:20.937Z,47.15
2022-09-28T06:48:47.796Z,47.39
2022-09-28T06:51:19.418Z,47.51
2022-09-28T06:53:54.018Z,47.83
2022-09-28T06:56:39.153Z,48.06
2022-09-28T06:59:06.101Z,48.25
2022-09-28T07:01:34.209Z,48.31
2022-09-28T07:04:24.671Z,48.49
2022-09-28T07:07:11.040Z,48.52
2022-09-28T07:09:56.254Z,48.81
2022-09-28T07:12:50.725Z,48.70
2022-09-28T07:15:29.542Z,48.94
2022-09-28T07:18:05.164Z,49.13
2022-09-28T07:20:41.527Z,49.03
2022-09-28T07:23:18.798Z,49.17
2022-09-28T07:26:08.281Z,49.50
2022-09-28T07:29:00.402Z,49.49
2022-09-28T07:31:54.184Z,49.53
2022-09-28T07:34:23.470Z,49.63
2022-09-28T07:36:58.885Z,49.58
2022-09-28T07:39:25.754Z,49.41
2022-09-28T07:41:56.623Z,49.59
2022-09-28T07:44:23.593Z,49.79
2022-09-28T07:46:54.280Z,49.62
2022-09-28T07:49:26.361Z,49.71
2022-09-28T07:51:58.184Z,49.66
2022-09-28T07:54:27.775Z,49.76
2022-09-28T07:57:00.031Z,49.67
2022-09-28T07:59:43.793Z,49.59
2022-09-28T08:02:40.782Z,49.64
2022-09-28T08:05:10.161Z,49.69
2022-09-28T08:07:38.239Z,49.61
2022-09-28T08:10:08.301Z,49.68
2022-09-28T08:13:00.698Z,49.69
2022-09-28T08:15:37.082Z,49.55
2022-09-28T08:18:14.372Z,49.64
2022-09-28T08:20:59.936Z,49.62
2022-09-28T08:23:26.744Z,49.62
2022-09-28T08:25:54.650Z,49.51
2022-09-28T08:28:24.029Z,49.58
2022-09-28T08:30:54.342Z,49.76
2022-09-28T08:33:39.468Z,49.60
2022-09-28T08:36:24.720Z,49.51
2022-09-28T08:39:24.871Z,49.58
2022-09-28T08:42:32.391Z,49.71
2022-09-28T08:45:26.092Z,49.83
2022-09-28T08:49:01.255Z,49.67
2022-09-28T08:52:03.034Z,49.31
2022-09-28T08:55:00.966Z,48.27
2022-09-28T08:57:56.114Z,47.51
2022-09-28T09:02:51.531Z,46.45
2022-09-28T09:08:00.860Z,46.19
2022-09-28T09:10:40.528Z,45.46
2022-09-28T09:13:45.872Z,45.30
2022-09-28T09:16:35.821Z,45.56
2022-09-28T09:19:35.618Z,45.47
2022-09-28T09:22:41.044Z,45.50
2022-09-28T09:25:15.259Z,45.53
2022-09-28T09:27:49.910Z,45.68
2022-09-28T09:30:21.985Z,45.85
2022-09-28T09:32:58.312Z,46.04
2022-09-28T09:35:37.547Z,46.33
2022-09-28T09:38:27.772Z,46.47
2022-09-28T09:41:30.421Z,46.63
2022-09-28T09:44:31.010Z,46.68
2022-09-28T09:47:34.096Z,46.95
2022-09-28T09:50:19.633Z,47.06
2022-09-28T09:52:54.918Z,47.35
2022-09-28T09:55:32.947Z,47.62
2022-09-28T09:58:24.626Z,47.83
2022-09-28T10:01:12.368Z,48.05
2022-09-28T10:04:19.224Z,48.36
2022-09-28T10:06:49.761Z,48.37
2022-09-28T10:09:42.312Z,48.46
2022-09-28T10:12:41.801Z,48.52
2022-09-28T10:15:15.266Z,48.78
2022-09-28T10:17:55.596Z,48.71
2022-09-28T10:21:00.651Z,48.75
2022-09-28T10:23:58.100Z,48.91
2022-09-28T10:26:50.416Z,49.26
2022-09-28T10:29:22.162Z,49.08
2022-09-28T10:31:50.404Z,49.25
2022-09-28T10:34:31.558Z,49.35
2022-09-28T10:37:09.884Z,49.25
2022-09-28T10:39:56.081Z,49.44
2022-09-28T10:42:30.923Z,49.28
2022-09-28T10:44:58.643Z,49.46
2022-09-28T10:47:36.432Z,49.56
2022-09-28T10:50:34.964Z,49.71
2022-09-28T10:53:19.803Z,49.58
2022-09-28T10:56:21.500Z,45.87
2022-09-28T10:58:53.010Z,42.98
2022-09-28T11:01:34.424Z,40.74
2022-09-28T11:04:06.705Z,39.23
2022-09-28T11:06:41.756Z,38.84
2022-09-28T11:09:20.112Z,37.55
2022-09-28T11:11:47.212Z,37.88
2022-09-28T11:14:38.375Z,37.71
2022-09-28T11:17:23.860Z,37.29
2022-09-28T11:19:50.779Z,38.22
2022-09-28T11:22:45.608Z,38.28
2022-09-28T11:25:16.273Z,38.42
2022-09-28T11:28:04.816Z,37.23
2022-09-28T11:30:49.236Z,36.03
2022-09-28T11:33:35.608Z,35.60
2022-09-28T11:37:01.678Z,37.34
2022-09-28T11:39:54.032Z,39.13
2022-09-28T11:42:30.453Z,40.92
2022-09-28T11:45:40.850Z,42.23
2022-09-28T11:48:15.614Z,42.99
2022-09-28T11:50:53.099Z,43.61
2022-09-28T11:53:19.861Z,43.96
2022-09-28T11:56:01.778Z,44.57
2022-09-28T11:58:48.212Z,44.67
2022-09-28T12:01:48.609Z,45.18
2022-09-28T12:04:41.757Z,45.49
2022-09-28T12:07:30.151Z,45.74
2022-09-28T12:10:08.518Z,46.07
2022-09-28T12:13:10.611Z,46.07
2022-09-28T12:16:15.121Z,46.71
2022-09-28T12:18:56.723Z,46.79
2022-09-28T12:21:46.765Z,47.17
2022-09-28T12:24:16.635Z,47.16
2022-09-28T12:27:35.041Z,47.33
2022-09-28T12:30:14.175Z,47.79
2022-09-28T12:32:46.977Z,47.73
2022-09-28T12:35:19.643Z,48.05
2022-09-28T12:37:53.893Z,48.34
2022-09-28T12:44:03.947Z,48.79
2022-09-28T12:46:49.141Z,48.59
2022-09-28T12:50:20.060Z,48.52
2022-09-28T12:52:45.557Z,48.53
2022-09-28T12:55:24.916Z,48.66
2022-09-28T12:58:16.579Z,49.01
2022-09-28T13:01:03.552Z,49.04
2022-09-28T13:04:00.859Z,49.19
2022-09-28T13:06:56.972Z,49.15
2022-09-28T13:09:26.632Z,49.27
2022-09-28T13:12:12.358Z,49.29
2022-09-28T13:14:54.327Z,49.47
2022-09-28T13:17:20.902Z,49.71
2022-09-28T13:20:18.219Z,49.54
2022-09-28T13:22:55.077Z,49.56
2022-09-28T13:25:25.125Z,49.76
2022-09-28T13:27:59.866Z,49.57
2022-09-28T13:30:27.355Z,49.78
2022-09-28T13:32:59.633Z,49.72
2022-09-28T13:35:27.484Z,49.45
2022-09-28T13:38:18.800Z,48.90
2022-09-28T13:41:03.956Z,48.22
2022-09-28T13:44:04.081Z,47.99
2022-09-28T13:46:45.732Z,47.67
2022-09-28T13:49:20.931Z,47.53
2022-09-28T13:51:58.496Z,47.74
2022-09-28T13:54:30.965Z,47.90
2022-09-28T13:57:19.674Z,47.92
2022-09-28T13:59:58.824Z,48.00
2022-09-28T14:02:41.117Z,48.43
2022-09-28T14:05:22.961Z,48.68
2022-09-28T14:08:29.691Z,48.74
2022-09-28T14:11:17.258Z,48.89
2022-09-28T14:13:44.325Z,48.85
2022-09-28T14:16:31.876Z,49.20
2022-09-28T14:19:24.242Z,49.08
2022-09-28T14:21:59.991Z,49.18
2022-09-28T14:24:47.819Z,49.20
2022-09-28T14:27:17.469Z,49.53
2022-09-28T14:29:45.682Z,49.53
2022-09-28T14:32:12.408Z,49.58
2022-09-28T14:34:44.290Z,49.69
2022-09-28T14:37:58.771Z,49.97
2022-09-28T14:40:49.958Z,49.51
2022-09-28T14:43:38.233Z,49.70
2022-09-28T14:46:07.784Z,49.94
2022-09-28T14:48:54.173Z,49.96
2022-09-28T14:51:26.968Z,49.90
2022-09-28T14:53:56.323Z,49.83
2022-09-28T14:56:23.903Z,50.15
2022-09-28T14:58:55.693Z,49.95
2022-09-28T15:01:25.031Z,50.03
2022-09-28T15:03:56.102Z,50.01
2022-09-28T15:06:24.368Z,50.21
2022-09-28T15:08:51.207Z,50.28
2022-09-28T15:11:24.086Z,50.44
2022-09-28T15:13:55.585Z,50.05
2022-09-28T15:19:26.711Z,48.69
2022-09-28T15:21:53.559Z,48.38
2022-09-28T15:24:34.445Z,47.97
2022-09-28T15:27:04.081Z,47.65
2022-09-28T15:29:34.031Z,47.98
2022-09-28T15:32:00.878Z,47.52
2022-09-28T15:34:49.839Z,47.31
2022-09-28T15:37:40.386Z,46.98
2022-09-28T15:40:16.721Z,46.23
2022-09-28T15:42:45.221Z,45.39
2022-09-28T15:45:14.870Z,45.07
2022-09-28T15:47:43.595Z,45.23
2022-09-28T15:50:26.761Z,45.45
2022-09-28T15:53:01.296Z,45.67
2022-09-28T15:55:32.040Z,45.66
2022-09-28T15:58:06.905Z,45.74
2022-09-28T16:00:34.112Z,45.63
2022-09-28T16:03:08.713Z,45.72
2022-09-28T16:05:38.484Z,45.85
2022-09-28T16:08:05.777Z,45.79
2022-09-28T16:10:35.029Z,45.70
2022-09-28T16:13:16.058Z,45.93
2022-09-28T16:15:43.135Z,46.13
2022-09-28T16:18:12.686Z,46.45
2022-09-28T16:20:41.002Z,46.44
2022-09-28T16:23:16.948Z,46.65
2022-09-28T16:26:06.288Z,46.93
2022-09-28T16:28:34.625Z,46.85
2022-09-28T16:31:05.179Z,46.81
2022-09-28T16:33:46.614Z,46.91
2022-09-28T16:36:15.912Z,47.12
2022-09-28T16:38:46.625Z,47.00
2022-09-28T16:41:15.135Z,46.81
2022-09-28T16:43:41.771Z,46.93
2022-09-28T16:46:12.779Z,46.89
2022-09-28T16:48:48.886Z,46.92
2022-09-28T16:51:16.289Z,47.04
2022-09-28T16:54:02.955Z,47.15
2022-09-28T16:56:31.364Z,46.72
2022-09-28T16:58:58.016Z,46.56
2022-09-28T17:01:25.341Z,46.44
2022-09-28T17:03:51.968Z,46.47
2022-09-28T17:06:20.679Z,46.16
2022-09-28T17:08:47.225Z,46.12
2022-09-28T17:11:23.373Z,45.70
2022-09-28T17:13:51.705Z,45.90
2022-09-28T17:16:32.616Z,45.53
2022-09-28T17:19:34.172Z,45.82
2022-09-28T17:22:00.809Z,45.62
2022-09-28T17:24:27.284Z,45.63
2022-09-28T17:26:54.723Z,45.60
2022-09-28T17:29:21.752Z,45.77
2022-09-28T17:31:48.377Z,45.49
2022-09-28T17:34:19.706Z,45.39
2022-09-28T17:36:47.201Z,45.39
2022-09-28T17:39:16.110Z,45.65
2022-09-28T17:41:45.285Z,45.39
2022-09-28T17:44:16.097Z,45.53
2022-09-28T17:46:47.341Z,45.46
2022-09-28T17:49:14.487Z,45.24
2022-09-28T17:51:41.100Z,45.45
2022-09-28T17:54:08.396Z,45.40
2022-09-28T17:56:35.585Z,45.29
2022-09-28T17:59:12.584Z,45.37
2022-09-28T18:01:40.224Z,45.46
2022-09-28T18:04:33.235Z,45.25
2022-09-28T18:07:00.077Z,45.47
2022-09-28T18:09:26.682Z,45.48
2022-09-28T18:12:00.752Z,45.24
2022-09-28T18:14:28.350Z,44.94
2022-09-28T18:16:54.882Z,45.00
2022-09-28T18:19:21.466Z,44.64
2022-09-28T18:21:48.386Z,44.69
2022-09-28T18:24:15.171Z,44.45
2022-09-28T18:26:41.687Z,44.48
2022-09-28T18:29:08.245Z,44.58
2022-09-28T18:31:34.718Z,44.40
2022-09-28T18:34:02.019Z,44.55
2022-09-28T18:36:35.734Z,44.47
2022-09-28T18:39:02.545Z,44.47
2022-09-28T18:41:29.288Z,44.43
2022-09-28T18:44:00.591Z,44.43
2022-09-28T18:46:28.940Z,44.61
2022-09-28T18:48:55.930Z,44.84
2022-09-28T18:51:25.774Z,44.95
2022-09-28T18:53:52.362Z,45.02
2022-09-28T18:56:19.632Z,45.05
2022-09-28T18:58:47.866Z,45.34
2022-09-28T19:01:35.006Z,45.39
2022-09-28T19:04:07.218Z,45.44
2022-09-28T19:06:34.674Z,45.36
2022-09-28T19:09:01.498Z,45.33
2022-09-28T19:11:28.990Z,45.30
2022-09-28T19:13:55.909Z,45.32
2022-09-28T19:16:25.498Z,45.33
2022-09-28T19:18:53.584Z,45.23
2022-09-28T19:21:21.149Z,45.33
2022-09-28T19:23:49.755Z,45.43
2022-09-28T19:26:22.020Z,45.67
2022-09-28T19:28:48.730Z,46.23
2022-09-28T19:31:17.420Z,46.43
2022-09-28T19:33:50.461Z,46.70
2022-09-28T19:36:19.643Z,46.94
2022-09-28T19:38:46.668Z,46.62
2022-09-28T19:41:39.021Z,46.80
2022-09-28T19:44:39.145Z,47.18
2022-09-28T19:47:10.204Z,46.93
2022-09-28T19:49:40.072Z,47.13
2022-09-28T19:52:16.580Z,47.08
2022-09-28T19:54:44.735Z,47.08
2022-09-28T19:57:14.372Z,46.87
2022-09-28T19:59:41.176Z,47.26
2022-09-28T20:02:08.549Z,47.04
2022-09-28T20:04:35.717Z,46.89
2022-09-28T20:07:03.213Z,46.77
2022-09-28T20:09:29.837Z,46.94
2022-09-28T20:11:56.941Z,46.81
2022-09-28T20:14:25.883Z,46.70
2022-09-28T20:19:23.070Z,46.74
2022-09-28T20:21:50.512Z,46.60
2022-09-28T20:24:17.522Z,46.60
2022-09-28T20:26:45.753Z,46.64
2022-09-28T20:29:12.476Z,46.59
2022-09-28T20:31:39.242Z,46.52
2022-09-28T20:34:06.957Z,46.65
2022-09-28T20:36:33.765Z,46.91
2022-09-28T20:39:04.711Z,47.22
2022-09-28T20:41:35.552Z,47.67
2022-09-28T20:44:05.792Z,48.21
2022-09-28T20:46:34.703Z,48.38
2022-09-28T20:49:07.766Z,48.36
2022-09-28T20:51:34.579Z,48.29
2022-09-28T20:54:04.185Z,48.08
2022-09-28T20:56:39.282Z,48.34
2022-09-28T20:59:11.641Z,48.14
2022-09-28T21:01:38.560Z,48.18
2022-09-28T21:04:06.397Z,48.13
2022-09-28T21:06:35.544Z,48.12
2022-09-28T21:09:03.189Z,48.18
2022-09-28T21:11:30.178Z,47.97
2022-09-28T21:14:02.291Z,47.81
2022-09-28T21:16:31.972Z,47.57
2022-09-28T21:18:58.720Z,47.72
2022-09-28T21:21:26.464Z,47.58
2022-09-28T21:23:54.409Z,47.80
2022-09-28T21:26:25.647Z,47.55
2022-09-28T21:28:57.840Z,47.60
2022-09-28T21:31:29.130Z,47.42
2022-09-28T21:33:57.415Z,47.48
2022-09-28T21:36:25.606Z,47.32
2022-09-28T21:38:54.124Z,47.46
2022-09-28T21:41:20.643Z,47.35
2022-09-28T21:43:47.367Z,47.26
2022-09-28T21:46:13.947Z,47.16
2022-09-28T21:48:41.056Z,47.29
2022-09-28T21:51:10.092Z,47.34
2022-09-28T21:53:37.654Z,47.31
2022-09-28T21:56:06.842Z,47.24
2022-09-28T21:58:35.566Z,47.38
2022-09-28T22:01:06.994Z,47.29
2022-09-28T22:03:35.935Z,47.23
2022-09-28T22:06:04.856Z,47.18
2022-09-28T22:08:33.128Z,47.13
2022-09-28T22:11:12.028Z,47.25
2022-09-28T22:13:42.633Z,47.23
2022-09-28T22:16:10.935Z,47.17
2022-09-28T22:18:37.800Z,47.40
2022-09-28T22:21:14.699Z,47.28
2022-09-28T22:23:41.595Z,47.22
2022-09-28T22:26:17.691Z,47.18
2022-09-28T22:28:47.375Z,47.17
2022-09-28T22:31:15.063Z,47.15
2022-09-28T22:33:41.682Z,47.22
2022-09-28T22:36:11.305Z,47.24
2022-09-28T22:38:37.929Z,47.18
2022-09-28T22:41:04.427Z,47.11
2022-09-28T22:43:31.634Z,46.98
2022-09-28T22:46:03.598Z,47.10
2022-09-28T22:48:30.763Z,46.98
2022-09-28T22:50:57.321Z,47.01
2022-09-28T22:53:23.877Z,46.88
2022-09-28T22:55:50.539Z,46.95
2022-09-28T22:58:17.648Z,47.04
2022-09-28T23:00:44.475Z,46.92
2022-09-28T23:03:11.152Z,47.04
2022-09-28T23:05:37.762Z,46.89
2022-09-28T23:08:04.372Z,46.90
2022-09-28T23:10:30.887Z,46.78
2022-09-28T23:12:58.067Z,46.87
2022-09-28T23:15:25.054Z,46.98
2022-09-28T23:17:55.114Z,46.70
2022-09-28T23:20:21.877Z,46.85
2022-09-28T23:22:49.741Z,46.83
2022-09-28T23:25:18.158Z,46.71
2022-09-28T23:27:46.741Z,46.37
2022-09-28T23:30:15.336Z,46.55
2022-09-28T23:32:42.036Z,46.45
2022-09-28T23:35:08.917Z,46.51
2022-09-28T23:37:35.797Z,46.46
2022-09-28T23:40:05.260Z,46.47
2022-09-28T23:42:32.126Z,46.49
2022-09-28T23:44:58.761Z,46.60
2022-09-28T23:47:25.276Z,46.70
2022-09-28T23:49:51.905Z,46.80
2022-09-28T23:52:18.469Z,46.74
2022-09-28T23:54:45.113Z,46.82
2022-09-28T23:57:11.624Z,46.72
2022-09-28T23:59:38.623Z,46.77
